sensor_id;sensor_type;location;lat;lon;timestamp;pressure;altitude;pressure_sealevel;temperature;humidity
56456;BME280;42354;53.218;6.564;2023-06-26T00:01:14;46954.44;;;-142.92;54.21
56456;BME280;42354;53.218;6.564;2023-06-26T00:03:40;46958.56;;;-142.92;54.28
56456;BME280;42354;53.218;6.564;2023-06-26T00:06:05;46938.03;;;-142.92;54.24
56456;BME280;42354;53.218;6.564;2023-06-26T00:08:31;46954.44;;;-142.92;54.28
56456;BME280;42354;53.218;6.564;2023-06-26T00:10:56;46952.41;;;-142.92;54.39
56456;BME280;42354;53.218;6.564;2023-06-26T00:13:23;46948.28;;;-142.92;54.43
56456;BME280;42354;53.218;6.564;2023-06-26T00:15:48;46948.28;;;-142.92;54.37
56456;BME280;42354;53.218;6.564;2023-06-26T00:18:14;46958.56;;;-142.92;54.60
56456;BME280;42354;53.218;6.564;2023-06-26T00:20:39;46942.13;;;-142.92;54.56
56456;BME280;42354;53.218;6.564;2023-06-26T00:23:05;46954.44;;;-142.92;54.46
56456;BME280;42354;53.218;6.564;2023-06-26T00:25:35;46946.25;;;-142.92;54.35
56456;BME280;42354;53.218;6.564;2023-06-26T00:28:01;46950.34;;;-142.92;54.26
56456;BME280;42354;53.218;6.564;2023-06-26T00:30:26;46954.44;;;-142.92;54.11
56456;BME280;42354;53.218;6.564;2023-06-26T00:32:52;46954.44;;;-142.92;53.73
56456;BME280;42354;53.218;6.564;2023-06-26T00:35:17;46954.44;;;-142.92;53.74
56456;BME280;42354;53.218;6.564;2023-06-26T00:37:43;46954.44;;;-142.92;53.72
56456;BME280;42354;53.218;6.564;2023-06-26T00:40:09;46942.13;;;-142.92;53.57
56456;BME280;42354;53.218;6.564;2023-06-26T00:42:34;46946.25;;;-142.92;53.61
56456;BME280;42354;53.218;6.564;2023-06-26T00:45:00;46956.50;;;-142.92;53.71
56456;BME280;42354;53.218;6.564;2023-06-26T00:47:26;46946.25;;;-142.92;53.58
56456;BME280;42354;53.218;6.564;2023-06-26T00:49:52;46954.44;;;-142.92;53.63
56456;BME280;42354;53.218;6.564;2023-06-26T00:52:19;46942.13;;;-142.92;53.76
56456;BME280;42354;53.218;6.564;2023-06-26T00:54:45;46929.81;;;-142.92;53.91
56456;BME280;42354;53.218;6.564;2023-06-26T00:57:11;46956.50;;;-142.92;54.13
56456;BME280;42354;53.218;6.564;2023-06-26T00:59:37;46952.41;;;-142.92;54.11
56456;BME280;42354;53.218;6.564;2023-06-26T01:02:03;46954.44;;;-142.92;54.38
56456;BME280;42354;53.218;6.564;2023-06-26T01:04:28;46952.41;;;-142.92;54.46
56456;BME280;42354;53.218;6.564;2023-06-26T01:06:57;46960.59;;;-142.92;54.50
56456;BME280;42354;53.218;6.564;2023-06-26T01:09:25;46952.41;;;-142.92;54.67
56456;BME280;42354;53.218;6.564;2023-06-26T01:11:51;46956.50;;;-142.92;55.05
56456;BME280;42354;53.218;6.564;2023-06-26T01:14:17;46958.56;;;-142.92;55.04
56456;BME280;42354;53.218;6.564;2023-06-26T01:16:43;46952.41;;;-142.92;55.15
56456;BME280;42354;53.218;6.564;2023-06-26T01:19:23;46950.34;;;-142.92;55.42
56456;BME280;42354;53.218;6.564;2023-06-26T01:22:02;46950.34;;;-142.92;55.66
56456;BME280;42354;53.218;6.564;2023-06-26T01:25:03;46940.09;;;-142.92;55.80
56456;BME280;42354;53.218;6.564;2023-06-26T01:27:30;46948.28;;;-142.92;56.14
56456;BME280;42354;53.218;6.564;2023-06-26T01:29:59;46960.59;;;-142.92;56.30
56456;BME280;42354;53.218;6.564;2023-06-26T01:32:26;46940.09;;;-142.92;56.65
56456;BME280;42354;53.218;6.564;2023-06-26T01:34:52;46950.34;;;-142.92;56.96
56456;BME280;42354;53.218;6.564;2023-06-26T01:37:17;46938.03;;;-142.92;57.25
56456;BME280;42354;53.218;6.564;2023-06-26T01:39:42;46944.19;;;-142.92;57.34
56456;BME280;42354;53.218;6.564;2023-06-26T01:42:08;46946.25;;;-142.92;57.64
56456;BME280;42354;53.218;6.564;2023-06-26T01:44:35;46950.34;;;-142.92;57.92
56456;BME280;42354;53.218;6.564;2023-06-26T01:47:03;46942.13;;;-142.92;58.12
56456;BME280;42354;53.218;6.564;2023-06-26T01:49:54;46954.44;;;-142.92;58.37
56456;BME280;42354;53.218;6.564;2023-06-26T01:54:58;46942.13;;;-142.92;58.92
56456;BME280;42354;53.218;6.564;2023-06-26T01:57:29;46956.50;;;-142.92;59.25
56456;BME280;42354;53.218;6.564;2023-06-26T01:59:56;46950.34;;;-142.92;59.47
56456;BME280;42354;53.218;6.564;2023-06-26T02:02:23;46948.28;;;-142.92;59.78
56456;BME280;42354;53.218;6.564;2023-06-26T02:04:49;46954.44;;;-142.92;60.07
56456;BME280;42354;53.218;6.564;2023-06-26T02:07:15;46958.56;;;-142.92;60.44
56456;BME280;42354;53.218;6.564;2023-06-26T02:09:40;46950.34;;;-142.92;60.68
56456;BME280;42354;53.218;6.564;2023-06-26T02:12:06;46946.25;;;-142.92;60.96
56456;BME280;42354;53.218;6.564;2023-06-26T02:14:32;46968.81;;;-142.92;61.14
56456;BME280;42354;53.218;6.564;2023-06-26T02:16:58;46935.97;;;-142.92;61.49
56456;BME280;42354;53.218;6.564;2023-06-26T02:19:25;46942.13;;;-142.92;61.71
56456;BME280;42354;53.218;6.564;2023-06-26T02:21:55;46948.28;;;-142.92;62.11
56456;BME280;42354;53.218;6.564;2023-06-26T02:24:21;46946.25;;;-142.92;62.23
56456;BME280;42354;53.218;6.564;2023-06-26T02:26:46;46950.34;;;-142.92;62.63
56456;BME280;42354;53.218;6.564;2023-06-26T02:29:12;46948.28;;;-142.92;62.84
56456;BME280;42354;53.218;6.564;2023-06-26T02:31:37;46942.13;;;-142.92;63.15
56456;BME280;42354;53.218;6.564;2023-06-26T02:34:03;46948.28;;;-142.92;63.45
56456;BME280;42354;53.218;6.564;2023-06-26T02:36:29;46960.59;;;-142.92;63.63
56456;BME280;42354;53.218;6.564;2023-06-26T02:38:56;46942.13;;;-142.92;63.69
56456;BME280;42354;53.218;6.564;2023-06-26T02:41:21;46952.41;;;-142.92;63.31
56456;BME280;42354;53.218;6.564;2023-06-26T02:43:47;46956.50;;;-142.92;63.25
56456;BME280;42354;53.218;6.564;2023-06-26T02:46:12;46950.34;;;-142.92;62.94
56456;BME280;42354;53.218;6.564;2023-06-26T02:48:37;46954.44;;;-142.92;62.42
56456;BME280;42354;53.218;6.564;2023-06-26T02:51:03;46954.44;;;-142.92;62.29
56456;BME280;42354;53.218;6.564;2023-06-26T02:53:28;46952.41;;;-142.92;62.17
56456;BME280;42354;53.218;6.564;2023-06-26T02:55:54;46946.25;;;-142.92;62.17
56456;BME280;42354;53.218;6.564;2023-06-26T02:58:19;46950.34;;;-142.92;61.89
56456;BME280;42354;53.218;6.564;2023-06-26T03:00:45;46952.41;;;-142.92;62.01
56456;BME280;42354;53.218;6.564;2023-06-26T03:03:10;46954.44;;;-142.92;61.99
56456;BME280;42354;53.218;6.564;2023-06-26T03:05:35;46954.44;;;-142.92;62.12
56456;BME280;42354;53.218;6.564;2023-06-26T03:08:02;46942.13;;;-142.92;62.17
56456;BME280;42354;53.218;6.564;2023-06-26T03:10:28;46950.34;;;-142.92;62.54
56456;BME280;42354;53.218;6.564;2023-06-26T03:12:53;46962.66;;;-142.92;62.53
56456;BME280;42354;53.218;6.564;2023-06-26T03:15:19;46952.41;;;-142.92;62.78
56456;BME280;42354;53.218;6.564;2023-06-26T03:17:44;46962.66;;;-142.92;62.86
56456;BME280;42354;53.218;6.564;2023-06-26T03:20:10;46958.56;;;-142.92;63.28
56456;BME280;42354;53.218;6.564;2023-06-26T03:22:36;46948.28;;;-142.92;63.55
56456;BME280;42354;53.218;6.564;2023-06-26T03:25:02;46958.56;;;-142.92;63.71
56456;BME280;42354;53.218;6.564;2023-06-26T03:27:27;46948.28;;;-142.92;64.00
56456;BME280;42354;53.218;6.564;2023-06-26T03:29:53;46952.41;;;-142.92;64.26
56456;BME280;42354;53.218;6.564;2023-06-26T03:32:18;46956.50;;;-142.92;64.40
56456;BME280;42354;53.218;6.564;2023-06-26T03:34:43;46960.59;;;-142.92;64.78
56456;BME280;42354;53.218;6.564;2023-06-26T03:37:09;46958.56;;;-142.92;65.14
56456;BME280;42354;53.218;6.564;2023-06-26T03:39:34;46964.72;;;-142.92;65.44
56456;BME280;42354;53.218;6.564;2023-06-26T03:42:00;46942.13;;;-142.92;65.93
56456;BME280;42354;53.218;6.564;2023-06-26T03:44:27;46929.81;;;-142.92;66.29
56456;BME280;42354;53.218;6.564;2023-06-26T03:46:52;46952.41;;;-142.92;66.84
56456;BME280;42354;53.218;6.564;2023-06-26T03:49:18;46952.41;;;-142.92;67.08
56456;BME280;42354;53.218;6.564;2023-06-26T03:51:44;46946.25;;;-142.92;67.24
56456;BME280;42354;53.218;6.564;2023-06-26T03:54:09;46964.72;;;-142.92;67.83
56456;BME280;42354;53.218;6.564;2023-06-26T03:56:35;46966.75;;;-142.92;68.01
56456;BME280;42354;53.218;6.564;2023-06-26T03:59:01;46954.44;;;-142.92;68.36
56456;BME280;42354;53.218;6.564;2023-06-26T04:01:26;46952.41;;;-142.92;68.31
56456;BME280;42354;53.218;6.564;2023-06-26T04:03:51;46948.28;;;-142.92;68.53
56456;BME280;42354;53.218;6.564;2023-06-26T04:06:17;46962.66;;;-142.92;68.73
56456;BME280;42354;53.218;6.564;2023-06-26T04:08:42;46946.25;;;-142.92;69.10
56456;BME280;42354;53.218;6.564;2023-06-26T04:11:08;46952.41;;;-142.92;69.35
56456;BME280;42354;53.218;6.564;2023-06-26T04:13:33;46964.72;;;-142.92;69.62
56456;BME280;42354;53.218;6.564;2023-06-26T04:15:58;46946.25;;;-142.92;69.85
56456;BME280;42354;53.218;6.564;2023-06-26T04:18:24;46946.25;;;-142.92;70.24
56456;BME280;42354;53.218;6.564;2023-06-26T04:21:11;46960.59;;;-142.92;70.35
56456;BME280;42354;53.218;6.564;2023-06-26T04:23:38;46940.09;;;-142.92;70.90
56456;BME280;42354;53.218;6.564;2023-06-26T04:26:05;46954.44;;;-142.92;71.13
56456;BME280;42354;53.218;6.564;2023-06-26T04:28:32;46954.44;;;-142.92;71.39
56456;BME280;42354;53.218;6.564;2023-06-26T04:30:58;46950.34;;;-142.92;71.61
56456;BME280;42354;53.218;6.564;2023-06-26T04:33:24;46956.50;;;-142.92;71.76
56456;BME280;42354;53.218;6.564;2023-06-26T04:35:51;46946.25;;;-142.92;71.78
56456;BME280;42354;53.218;6.564;2023-06-26T04:38:16;46950.34;;;-142.92;72.05
56456;BME280;42354;53.218;6.564;2023-06-26T04:40:41;46946.25;;;-142.92;72.54
56456;BME280;42354;53.218;6.564;2023-06-26T04:43:07;46958.56;;;-142.92;73.02
56456;BME280;42354;53.218;6.564;2023-06-26T04:45:32;46954.44;;;-142.92;73.37
56456;BME280;42354;53.218;6.564;2023-06-26T04:47:58;46954.44;;;-142.92;73.83
56456;BME280;42354;53.218;6.564;2023-06-26T04:50:25;46964.72;;;-142.92;73.93
56456;BME280;42354;53.218;6.564;2023-06-26T04:52:53;46954.44;;;-142.92;74.29
56456;BME280;42354;53.218;6.564;2023-06-26T04:55:18;46950.34;;;-142.92;75.05
56456;BME280;42354;53.218;6.564;2023-06-26T04:57:44;46958.56;;;-142.92;76.58
56456;BME280;42354;53.218;6.564;2023-06-26T05:00:09;46942.13;;;-142.92;78.19
56456;BME280;42354;53.218;6.564;2023-06-26T05:02:36;46958.56;;;-142.92;80.26
56456;BME280;42354;53.218;6.564;2023-06-26T05:05:01;46964.72;;;-142.92;81.61
56456;BME280;42354;53.218;6.564;2023-06-26T05:07:27;46954.44;;;-142.92;82.59
56456;BME280;42354;53.218;6.564;2023-06-26T05:09:52;46950.34;;;-142.92;83.55
56456;BME280;42354;53.218;6.564;2023-06-26T05:12:17;46960.59;;;-142.92;84.35
56456;BME280;42354;53.218;6.564;2023-06-26T05:14:43;46946.25;;;-142.92;85.35
56456;BME280;42354;53.218;6.564;2023-06-26T05:17:08;46950.34;;;-142.92;86.05
56456;BME280;42354;53.218;6.564;2023-06-26T05:19:34;46958.56;;;-142.92;86.31
56456;BME280;42354;53.218;6.564;2023-06-26T05:22:00;46942.13;;;-142.92;86.59
56456;BME280;42354;53.218;6.564;2023-06-26T05:24:30;46944.19;;;-142.92;88.39
56456;BME280;42354;53.218;6.564;2023-06-26T05:26:55;46954.44;;;-142.92;89.01
56456;BME280;42354;53.218;6.564;2023-06-26T05:29:21;46958.56;;;-142.92;89.84
56456;BME280;42354;53.218;6.564;2023-06-26T05:31:49;46952.41;;;-142.92;89.78
56456;BME280;42354;53.218;6.564;2023-06-26T05:34:16;46958.56;;;-142.92;90.19
56456;BME280;42354;53.218;6.564;2023-06-26T05:36:44;46952.41;;;-142.92;91.21
56456;BME280;42354;53.218;6.564;2023-06-26T05:39:10;46960.59;;;-142.92;91.31
56456;BME280;42354;53.218;6.564;2023-06-26T05:41:36;46958.56;;;-142.92;90.70
56456;BME280;42354;53.218;6.564;2023-06-26T05:44:01;46944.19;;;-142.92;90.62
56456;BME280;42354;53.218;6.564;2023-06-26T05:46:27;46966.75;;;-142.92;91.47
56456;BME280;42354;53.218;6.564;2023-06-26T05:48:53;46950.34;;;-142.92;92.26
56456;BME280;42354;53.218;6.564;2023-06-26T05:51:18;46948.28;;;-142.92;91.98
56456;BME280;42354;53.218;6.564;2023-06-26T05:53:44;46958.56;;;-142.92;93.55
56456;BME280;42354;53.218;6.564;2023-06-26T05:56:10;46952.41;;;-142.92;93.92
56456;BME280;42354;53.218;6.564;2023-06-26T05:58:36;46942.13;;;-142.92;94.95
56456;BME280;42354;53.218;6.564;2023-06-26T06:01:01;46952.41;;;-142.92;95.20
56456;BME280;42354;53.218;6.564;2023-06-26T06:03:26;46956.50;;;-142.92;95.49
56456;BME280;42354;53.218;6.564;2023-06-26T06:05:52;46960.59;;;-142.92;95.08
56456;BME280;42354;53.218;6.564;2023-06-26T06:08:17;46958.56;;;-142.92;94.50
56456;BME280;42354;53.218;6.564;2023-06-26T06:10:43;46958.56;;;-142.92;94.12
56456;BME280;42354;53.218;6.564;2023-06-26T06:13:08;46964.72;;;-142.92;93.83
56456;BME280;42354;53.218;6.564;2023-06-26T06:15:33;46954.44;;;-142.92;92.23
56456;BME280;42354;53.218;6.564;2023-06-26T06:17:59;46952.41;;;-142.92;91.93
56456;BME280;42354;53.218;6.564;2023-06-26T06:20:25;46952.41;;;-142.92;91.68
56456;BME280;42354;53.218;6.564;2023-06-26T06:22:51;46954.44;;;-142.92;91.74
56456;BME280;42354;53.218;6.564;2023-06-26T06:25:17;46952.41;;;-142.92;91.76
56456;BME280;42354;53.218;6.564;2023-06-26T06:27:42;46958.56;;;-142.92;91.05
56456;BME280;42354;53.218;6.564;2023-06-26T06:30:09;46950.34;;;-142.92;87.94
56456;BME280;42354;53.218;6.564;2023-06-26T06:32:34;46950.34;;;-142.92;87.41
56456;BME280;42354;53.218;6.564;2023-06-26T06:35:00;46938.03;;;-142.92;86.87
56456;BME280;42354;53.218;6.564;2023-06-26T06:37:29;46950.34;;;-142.92;86.51
56456;BME280;42354;53.218;6.564;2023-06-26T06:39:56;46940.09;;;-142.92;84.58
56456;BME280;42354;53.218;6.564;2023-06-26T06:42:22;46950.34;;;-142.92;82.78
56456;BME280;42354;53.218;6.564;2023-06-26T06:44:47;46946.25;;;-142.92;81.41
56456;BME280;42354;53.218;6.564;2023-06-26T06:47:12;46954.44;;;-142.92;79.77
56456;BME280;42354;53.218;6.564;2023-06-26T06:49:38;46958.56;;;-142.92;78.34
56456;BME280;42354;53.218;6.564;2023-06-26T06:52:03;46958.56;;;-142.92;77.20
56456;BME280;42354;53.218;6.564;2023-06-26T06:54:29;46950.34;;;-142.92;76.05
56456;BME280;42354;53.218;6.564;2023-06-26T06:56:54;46964.72;;;-142.92;76.00
56456;BME280;42354;53.218;6.564;2023-06-26T06:59:19;46954.44;;;-142.92;74.98
56456;BME280;42354;53.218;6.564;2023-06-26T07:01:45;46952.41;;;-142.92;73.37
56456;BME280;42354;53.218;6.564;2023-06-26T07:04:10;46958.56;;;-142.92;69.06
56456;BME280;42354;53.218;6.564;2023-06-26T07:06:36;46946.25;;;-142.92;70.62
56456;BME280;42354;53.218;6.564;2023-06-26T07:09:01;46938.03;;;-142.92;67.76
56456;BME280;42354;53.218;6.564;2023-06-26T07:11:27;46964.72;;;-142.92;64.95
56456;BME280;42354;53.218;6.564;2023-06-26T07:13:53;46964.72;;;-142.92;65.01
56456;BME280;42354;53.218;6.564;2023-06-26T07:16:18;46958.56;;;-142.92;64.52
56456;BME280;42354;53.218;6.564;2023-06-26T07:18:44;46952.41;;;-142.92;64.24
56456;BME280;42354;53.218;6.564;2023-06-26T07:21:09;46950.34;;;-142.92;65.09
56456;BME280;42354;53.218;6.564;2023-06-26T07:23:34;46958.56;;;-142.92;65.56
56456;BME280;42354;53.218;6.564;2023-06-26T07:26:00;46952.41;;;-142.92;64.22
56456;BME280;42354;53.218;6.564;2023-06-26T07:28:25;46954.44;;;-142.92;63.94
56456;BME280;42354;53.218;6.564;2023-06-26T07:30:51;46950.34;;;-142.92;65.08
56456;BME280;42354;53.218;6.564;2023-06-26T07:33:16;46940.09;;;-142.92;65.55
56456;BME280;42354;53.218;6.564;2023-06-26T07:35:41;46958.56;;;-142.92;65.12
56456;BME280;42354;53.218;6.564;2023-06-26T07:38:07;46958.56;;;-142.92;65.24
56456;BME280;42354;53.218;6.564;2023-06-26T07:40:32;46940.09;;;-142.92;64.84
56456;BME280;42354;53.218;6.564;2023-06-26T07:42:57;46950.34;;;-142.92;64.30
56456;BME280;42354;53.218;6.564;2023-06-26T07:45:23;46962.66;;;-142.92;63.88
56456;BME280;42354;53.218;6.564;2023-06-26T07:47:49;46938.03;;;-142.92;62.40
56456;BME280;42354;53.218;6.564;2023-06-26T07:50:14;46950.34;;;-142.92;61.56
56456;BME280;42354;53.218;6.564;2023-06-26T07:52:44;46948.28;;;-142.92;61.30
56456;BME280;42354;53.218;6.564;2023-06-26T07:55:10;46946.25;;;-142.92;60.20
56456;BME280;42354;53.218;6.564;2023-06-26T07:57:35;46938.03;;;-142.92;61.25
56456;BME280;42354;53.218;6.564;2023-06-26T08:00:01;46950.34;;;-142.92;59.68
56456;BME280;42354;53.218;6.564;2023-06-26T08:02:26;46958.56;;;-142.92;59.55
56456;BME280;42354;53.218;6.564;2023-06-26T08:04:51;46950.34;;;-142.92;60.94
56456;BME280;42354;53.218;6.564;2023-06-26T08:07:17;46962.66;;;-142.92;61.03
56456;BME280;42354;53.218;6.564;2023-06-26T08:09:43;46964.72;;;-142.92;61.10
56456;BME280;42354;53.218;6.564;2023-06-26T08:12:09;46954.44;;;-142.92;60.83
56456;BME280;42354;53.218;6.564;2023-06-26T08:14:34;46952.41;;;-142.92;61.19
56456;BME280;42354;53.218;6.564;2023-06-26T08:17:00;46962.66;;;-142.92;60.27
56456;BME280;42354;53.218;6.564;2023-06-26T08:19:25;46948.28;;;-142.92;59.85
56456;BME280;42354;53.218;6.564;2023-06-26T08:21:50;46960.59;;;-142.92;61.23
56456;BME280;42354;53.218;6.564;2023-06-26T08:24:16;46952.41;;;-142.92;60.70
56456;BME280;42354;53.218;6.564;2023-06-26T08:26:45;46958.56;;;-142.92;59.61
56456;BME280;42354;53.218;6.564;2023-06-26T08:29:11;46956.50;;;-142.92;60.27
56456;BME280;42354;53.218;6.564;2023-06-26T08:31:39;46956.50;;;-142.92;60.12
56456;BME280;42354;53.218;6.564;2023-06-26T08:34:05;46952.41;;;-142.92;61.18
56456;BME280;42354;53.218;6.564;2023-06-26T08:36:31;46954.44;;;-142.92;61.64
56456;BME280;42354;53.218;6.564;2023-06-26T08:38:57;46966.75;;;-142.92;60.79
56456;BME280;42354;53.218;6.564;2023-06-26T08:41:23;46946.25;;;-142.92;60.95
56456;BME280;42354;53.218;6.564;2023-06-26T08:43:48;46958.56;;;-142.92;60.42
56456;BME280;42354;53.218;6.564;2023-06-26T08:46:16;46954.44;;;-142.92;60.27
56456;BME280;42354;53.218;6.564;2023-06-26T08:48:47;46962.66;;;-142.92;61.21
56456;BME280;42354;53.218;6.564;2023-06-26T08:51:16;46948.28;;;-142.92;61.06
56456;BME280;42354;53.218;6.564;2023-06-26T08:56:11;46956.50;;;-142.92;61.16
56456;BME280;42354;53.218;6.564;2023-06-26T08:58:38;46960.59;;;-142.92;60.20
56456;BME280;42354;53.218;6.564;2023-06-26T09:01:04;46962.66;;;-142.92;58.57
56456;BME280;42354;53.218;6.564;2023-06-26T09:03:31;46954.44;;;-142.92;58.23
56456;BME280;42354;53.218;6.564;2023-06-26T09:05:56;46960.59;;;-142.92;59.35
56456;BME280;42354;53.218;6.564;2023-06-26T09:08:22;46962.66;;;-142.92;59.75
56456;BME280;42354;53.218;6.564;2023-06-26T09:10:47;46954.44;;;-142.92;58.58
56456;BME280;42354;53.218;6.564;2023-06-26T09:13:13;46952.41;;;-142.92;57.04
56456;BME280;42354;53.218;6.564;2023-06-26T09:15:42;46958.56;;;-142.92;53.78
56456;BME280;42354;53.218;6.564;2023-06-26T09:18:07;46968.81;;;-142.92;55.34
56456;BME280;42354;53.218;6.564;2023-06-26T09:20:33;46952.41;;;-142.92;56.25
56456;BME280;42354;53.218;6.564;2023-06-26T09:23:00;46950.34;;;-142.92;56.23
56456;BME280;42354;53.218;6.564;2023-06-26T09:25:26;46960.59;;;-142.92;55.31
56456;BME280;42354;53.218;6.564;2023-06-26T09:27:52;46954.44;;;-142.92;54.34
56456;BME280;42354;53.218;6.564;2023-06-26T09:30:18;46958.56;;;-142.92;54.95
56456;BME280;42354;53.218;6.564;2023-06-26T09:32:44;46954.44;;;-142.92;55.62
56456;BME280;42354;53.218;6.564;2023-06-26T09:35:10;46942.13;;;-142.92;57.12
56456;BME280;42354;53.218;6.564;2023-06-26T09:37:36;46950.34;;;-142.92;58.22
56456;BME280;42354;53.218;6.564;2023-06-26T09:40:02;46952.41;;;-142.92;58.80
56456;BME280;42354;53.218;6.564;2023-06-26T09:42:29;46958.56;;;-142.92;58.27
56456;BME280;42354;53.218;6.564;2023-06-26T09:44:54;46958.56;;;-142.92;54.32
56456;BME280;42354;53.218;6.564;2023-06-26T09:47:20;46950.34;;;-142.92;52.44
56456;BME280;42354;53.218;6.564;2023-06-26T09:49:46;46946.25;;;-142.92;50.72
56456;BME280;42354;53.218;6.564;2023-06-26T09:52:16;46962.66;;;-142.92;49.16
56456;BME280;42354;53.218;6.564;2023-06-26T09:54:42;46960.59;;;-142.92;49.38
56456;BME280;42354;53.218;6.564;2023-06-26T09:57:15;46962.66;;;-142.92;49.58
56456;BME280;42354;53.218;6.564;2023-06-26T09:59:42;46952.41;;;-142.92;49.83
56456;BME280;42354;53.218;6.564;2023-06-26T10:02:09;46942.13;;;-142.92;48.78
56456;BME280;42354;53.218;6.564;2023-06-26T10:04:36;46954.44;;;-142.92;50.16
56456;BME280;42354;53.218;6.564;2023-06-26T10:07:03;46950.34;;;-142.92;50.84
56456;BME280;42354;53.218;6.564;2023-06-26T10:09:30;46960.59;;;-142.92;49.87
56456;BME280;42354;53.218;6.564;2023-06-26T10:12:06;46952.41;;;-142.92;46.11
56456;BME280;42354;53.218;6.564;2023-06-26T10:14:37;46958.56;;;-142.92;45.09
56456;BME280;42354;53.218;6.564;2023-06-26T10:17:07;46966.75;;;-142.92;47.02
56456;BME280;42354;53.218;6.564;2023-06-26T10:19:38;46942.13;;;-142.92;47.80
56456;BME280;42354;53.218;6.564;2023-06-26T10:22:04;46940.09;;;-142.92;46.48
56456;BME280;42354;53.218;6.564;2023-06-26T10:24:34;46950.34;;;-142.92;46.13
56456;BME280;42354;53.218;6.564;2023-06-26T10:27:20;46948.28;;;-142.92;45.24
56456;BME280;42354;53.218;6.564;2023-06-26T10:30:05;46956.50;;;-142.92;44.14
56456;BME280;42354;53.218;6.564;2023-06-26T10:32:32;46962.66;;;-142.92;44.96
56456;BME280;42354;53.218;6.564;2023-06-26T10:34:58;46962.66;;;-142.92;45.01
56456;BME280;42354;53.218;6.564;2023-06-26T10:37:49;46954.44;;;-142.92;44.44
56456;BME280;42354;53.218;6.564;2023-06-26T10:40:26;46954.44;;;-142.92;43.97
56456;BME280;42354;53.218;6.564;2023-06-26T10:43:05;46960.59;;;-142.92;42.77
56456;BME280;42354;53.218;6.564;2023-06-26T10:45:33;46954.44;;;-142.92;42.23
56456;BME280;42354;53.218;6.564;2023-06-26T10:47:58;46954.44;;;-142.92;42.20
56456;BME280;42354;53.218;6.564;2023-06-26T10:50:29;46966.75;;;-142.92;42.32
56456;BME280;42354;53.218;6.564;2023-06-26T10:55:58;46950.34;;;-142.92;43.20
56456;BME280;42354;53.218;6.564;2023-06-26T10:58:48;46942.13;;;-142.92;45.55
56456;BME280;42354;53.218;6.564;2023-06-26T11:01:17;46946.25;;;-142.92;46.07
56456;BME280;42354;53.218;6.564;2023-06-26T11:04:00;46948.28;;;-142.92;45.53
56456;BME280;42354;53.218;6.564;2023-06-26T11:06:29;46944.19;;;-142.92;43.09
56456;BME280;42354;53.218;6.564;2023-06-26T11:14:21;46954.44;;;-142.92;42.70
56456;BME280;42354;53.218;6.564;2023-06-26T11:16:51;46958.56;;;-142.92;42.82
56456;BME280;42354;53.218;6.564;2023-06-26T11:19:17;46940.09;;;-142.92;44.18
56456;BME280;42354;53.218;6.564;2023-06-26T11:21:43;46950.34;;;-142.92;44.46
56456;BME280;42354;53.218;6.564;2023-06-26T11:24:10;46956.50;;;-142.92;43.83
56456;BME280;42354;53.218;6.564;2023-06-26T11:26:40;46958.56;;;-142.92;44.28
56456;BME280;42354;53.218;6.564;2023-06-26T11:29:05;46954.44;;;-142.92;43.55
56456;BME280;42354;53.218;6.564;2023-06-26T11:31:32;46962.66;;;-142.92;44.18
56456;BME280;42354;53.218;6.564;2023-06-26T11:34:04;46956.50;;;-142.92;43.40
56456;BME280;42354;53.218;6.564;2023-06-26T11:36:30;46946.25;;;-142.92;42.26
56456;BME280;42354;53.218;6.564;2023-06-26T11:39:00;46956.50;;;-142.92;41.91
56456;BME280;42354;53.218;6.564;2023-06-26T11:41:30;46952.41;;;-142.92;42.25
56456;BME280;42354;53.218;6.564;2023-06-26T11:43:59;46952.41;;;-142.92;43.30
56456;BME280;42354;53.218;6.564;2023-06-26T11:46:25;46952.41;;;-142.92;43.20
56456;BME280;42354;53.218;6.564;2023-06-26T11:48:51;46952.41;;;-142.92;42.03
56456;BME280;42354;53.218;6.564;2023-06-26T11:51:17;46954.44;;;-142.92;41.56
56456;BME280;42354;53.218;6.564;2023-06-26T11:53:44;46942.13;;;-142.92;41.70
56456;BME280;42354;53.218;6.564;2023-06-26T11:56:10;46956.50;;;-142.92;41.06
56456;BME280;42354;53.218;6.564;2023-06-26T11:58:37;46958.56;;;-142.92;41.16
56456;BME280;42354;53.218;6.564;2023-06-26T12:01:17;46962.66;;;-142.92;41.66
56456;BME280;42354;53.218;6.564;2023-06-26T12:03:43;46952.41;;;-142.92;40.00
56456;BME280;42354;53.218;6.564;2023-06-26T12:06:09;46962.66;;;-142.92;40.59
56456;BME280;42354;53.218;6.564;2023-06-26T12:08:34;46944.19;;;-142.92;41.88
56456;BME280;42354;53.218;6.564;2023-06-26T12:11:00;46950.34;;;-142.92;41.26
56456;BME280;42354;53.218;6.564;2023-06-26T12:13:25;46946.25;;;-142.92;41.28
56456;BME280;42354;53.218;6.564;2023-06-26T12:15:51;46952.41;;;-142.92;41.19
56456;BME280;42354;53.218;6.564;2023-06-26T12:18:16;46970.88;;;-142.92;39.78
56456;BME280;42354;53.218;6.564;2023-06-26T12:20:43;46940.09;;;-142.92;40.82
56456;BME280;42354;53.218;6.564;2023-06-26T12:23:13;46950.34;;;-142.92;40.14
56456;BME280;42354;53.218;6.564;2023-06-26T12:25:38;46946.25;;;-142.92;42.02
56456;BME280;42354;53.218;6.564;2023-06-26T12:28:17;46940.09;;;-142.92;41.18
56456;BME280;42354;53.218;6.564;2023-06-26T12:30:47;46950.34;;;-142.92;40.79
56456;BME280;42354;53.218;6.564;2023-06-26T12:33:14;46954.44;;;-142.92;40.99
56456;BME280;42354;53.218;6.564;2023-06-26T12:35:40;46948.28;;;-142.92;40.83
56456;BME280;42354;53.218;6.564;2023-06-26T12:38:08;46933.94;;;-142.92;40.68
56456;BME280;42354;53.218;6.564;2023-06-26T12:40:46;46950.34;;;-142.92;38.78
56456;BME280;42354;53.218;6.564;2023-06-26T12:43:22;46954.44;;;-142.92;38.18
56456;BME280;42354;53.218;6.564;2023-06-26T12:45:48;46950.34;;;-142.92;38.04
56456;BME280;42354;53.218;6.564;2023-06-26T12:48:13;46952.41;;;-142.92;38.58
56456;BME280;42354;53.218;6.564;2023-06-26T12:50:47;46938.03;;;-142.92;39.29
56456;BME280;42354;53.218;6.564;2023-06-26T12:53:15;46960.59;;;-142.92;40.49